createdAt,value
2019-03-08T00:00:07.526Z,996.98
2019-03-08T00:01:07.597Z,996.94
2019-03-08T00:02:07.487Z,996.90
2019-03-08T00:03:07.434Z,996.93
2019-03-08T00:04:08.300Z,996.87
2019-03-08T00:05:07.365Z,996.90
2019-03-08T00:06:07.395Z,996.89
2019-03-08T00:07:07.333Z,996.87
2019-03-08T00:08:07.275Z,996.88
2019-03-08T00:09:08.998Z,996.81
2019-03-08T00:10:07.225Z,996.89
2019-03-08T00:11:07.172Z,996.89
2019-03-08T00:12:07.874Z,996.87
2019-03-08T00:13:07.800Z,996.84
2019-03-08T00:14:07.801Z,996.69
2019-03-08T00:15:07.043Z,996.74
2019-03-08T00:16:07.017Z,996.69
2019-03-08T00:17:07.331Z,996.67
2019-03-08T00:18:06.953Z,996.67
2019-03-08T00:19:07.799Z,996.69
2019-03-08T00:20:06.888Z,996.67
2019-03-08T00:21:07.803Z,996.59
2019-03-08T00:22:07.799Z,996.55
2019-03-08T00:23:06.838Z,996.54
2019-03-08T00:24:07.301Z,996.52
2019-03-08T00:25:07.296Z,996.57
2019-03-08T00:26:06.690Z,996.62
2019-03-08T00:27:07.304Z,996.54
2019-03-08T00:28:06.835Z,996.51
2019-03-08T00:29:06.596Z,996.59
2019-03-08T00:30:06.561Z,996.53
2019-03-08T00:31:07.302Z,996.48
2019-03-08T00:32:06.501Z,996.55
2019-03-08T00:33:06.497Z,996.59
2019-03-08T00:34:06.433Z,996.57
2019-03-08T00:35:06.410Z,996.59
2019-03-08T00:36:06.372Z,996.55
2019-03-08T00:37:06.337Z,996.66
2019-03-08T00:38:06.332Z,996.57
2019-03-08T00:39:06.801Z,996.62
2019-03-08T00:40:06.400Z,996.56
2019-03-08T00:41:06.206Z,996.58
2019-03-08T00:42:06.858Z,996.61
2019-03-08T00:43:06.340Z,996.64
2019-03-08T00:44:06.805Z,996.65
2019-03-08T00:45:06.074Z,996.66
2019-03-08T00:46:06.046Z,996.67
2019-03-08T00:47:06.011Z,996.61
2019-03-08T00:48:06.010Z,996.64
2019-03-08T00:49:08.083Z,996.59
2019-03-08T00:50:05.920Z,996.65
2019-03-08T00:51:05.890Z,996.62
2019-03-08T00:52:06.803Z,996.55
2019-03-08T00:53:05.856Z,996.58
2019-03-08T00:54:05.787Z,996.56
2019-03-08T00:55:05.766Z,996.51
2019-03-08T00:56:05.728Z,996.53
2019-03-08T00:57:05.689Z,996.55
2019-03-08T00:58:05.691Z,996.55
2019-03-08T00:59:05.628Z,996.57
2019-03-08T01:00:05.596Z,996.54
2019-03-08T01:01:05.561Z,996.52
2019-03-08T01:02:05.526Z,996.51
2019-03-08T01:03:05.633Z,996.56
2019-03-08T01:04:05.467Z,996.51
2019-03-08T01:05:05.436Z,996.48
2019-03-08T01:06:05.407Z,996.58
2019-03-08T01:07:05.369Z,996.57
2019-03-08T01:08:05.845Z,996.52
2019-03-08T01:09:05.319Z,996.49
2019-03-08T01:10:05.270Z,996.43
2019-03-08T01:11:05.233Z,996.50
2019-03-08T01:12:05.223Z,996.47
2019-03-08T01:13:05.337Z,996.48
2019-03-08T01:14:05.141Z,996.45
2019-03-08T01:15:05.103Z,996.43
2019-03-08T01:16:05.075Z,996.44
2019-03-08T01:17:05.046Z,996.41
2019-03-08T01:18:05.034Z,996.37
2019-03-08T01:19:04.975Z,996.40
2019-03-08T01:20:04.944Z,996.40
2019-03-08T01:21:05.808Z,996.33
2019-03-08T01:22:04.884Z,996.40
2019-03-08T01:23:04.898Z,996.32
2019-03-08T01:24:04.818Z,996.35
2019-03-08T01:25:05.315Z,996.37
2019-03-08T01:26:04.755Z,996.28
2019-03-08T01:27:04.720Z,996.29
2019-03-08T01:28:04.723Z,996.17
2019-03-08T01:29:04.660Z,996.34
2019-03-08T01:30:04.634Z,996.21
2019-03-08T01:31:04.586Z,996.25
2019-03-08T01:32:05.577Z,996.24
2019-03-08T01:33:04.530Z,996.26
2019-03-08T01:34:04.521Z,996.12
2019-03-08T01:35:04.467Z,996.15
2019-03-08T01:36:04.426Z,996.12
2019-03-08T01:37:04.393Z,996.13
2019-03-08T01:38:04.373Z,996.08
2019-03-08T01:39:04.386Z,996.09
2019-03-08T01:40:04.811Z,996.10
2019-03-08T01:41:04.825Z,996.06
2019-03-08T01:42:04.267Z,996.06
2019-03-08T01:43:04.844Z,996.11
2019-03-08T01:44:04.193Z,996.04
2019-03-08T01:45:04.134Z,996.12
2019-03-08T01:46:04.106Z,996.00
2019-03-08T01:47:04.081Z,995.99
2019-03-08T01:48:04.814Z,996.14
2019-03-08T01:49:04.028Z,996.05
2019-03-08T01:50:03.978Z,996.07
2019-03-08T01:51:04.812Z,996.10
2019-03-08T01:52:03.927Z,996.07
2019-03-08T01:53:03.875Z,996.10
2019-03-08T01:54:04.354Z,996.12
2019-03-08T01:55:03.816Z,996.09
2019-03-08T01:56:04.315Z,996.03
2019-03-08T01:57:06.314Z,996.13
2019-03-08T01:58:04.313Z,996.00
2019-03-08T01:59:03.853Z,995.98
2019-03-08T02:00:03.661Z,996.15
2019-03-08T02:01:03.620Z,996.07
2019-03-08T02:02:04.310Z,996.10
2019-03-08T02:03:04.347Z,996.04
2019-03-08T02:04:03.850Z,996.05
2019-03-08T02:05:03.484Z,996.04
2019-03-08T02:06:03.455Z,996.13
2019-03-08T02:07:03.417Z,995.99
2019-03-08T02:08:03.393Z,995.98
2019-03-08T02:09:03.923Z,995.93
2019-03-08T02:10:03.322Z,995.81
2019-03-08T02:11:03.812Z,995.74
2019-03-08T02:12:03.821Z,995.84
2019-03-08T02:13:03.831Z,995.91
2019-03-08T02:14:03.220Z,995.89
2019-03-08T02:15:03.817Z,995.89
2019-03-08T02:16:03.816Z,995.84
2019-03-08T02:17:03.092Z,995.77
2019-03-08T02:18:03.066Z,995.75
2019-03-08T02:19:03.357Z,995.76
2019-03-08T02:20:03.823Z,995.73
2019-03-08T02:21:07.085Z,995.75
2019-03-08T02:22:02.934Z,995.76
2019-03-08T02:23:02.897Z,995.74
2019-03-08T02:24:03.353Z,995.80
2019-03-08T02:25:02.843Z,995.78
2019-03-08T02:26:02.810Z,995.80
2019-03-08T02:27:03.334Z,995.79
2019-03-08T02:28:03.315Z,995.79
2019-03-08T02:29:02.853Z,995.83
2019-03-08T02:30:03.320Z,995.84
2019-03-08T02:31:02.642Z,995.82
2019-03-08T02:32:02.605Z,995.77
2019-03-08T02:33:02.572Z,995.85
2019-03-08T02:34:02.566Z,995.80
2019-03-08T02:35:03.314Z,995.87
2019-03-08T02:36:02.472Z,995.82
2019-03-08T02:37:03.315Z,995.82
2019-03-08T02:38:03.319Z,995.86
2019-03-08T02:39:02.419Z,995.82
2019-03-08T02:40:02.375Z,995.82
2019-03-08T02:41:02.319Z,995.71
2019-03-08T02:42:02.288Z,995.81
2019-03-08T02:43:02.817Z,995.88
2019-03-08T02:44:02.245Z,995.80
2019-03-08T02:45:02.215Z,995.84
2019-03-08T02:46:02.153Z,995.87
2019-03-08T02:47:02.815Z,995.73
2019-03-08T02:48:02.817Z,995.70
2019-03-08T02:49:02.822Z,995.68
2019-03-08T02:50:02.050Z,995.76
2019-03-08T02:51:01.996Z,995.75
2019-03-08T02:52:01.954Z,995.58
2019-03-08T02:53:01.928Z,995.58
2019-03-08T02:54:01.907Z,995.69
2019-03-08T02:55:02.360Z,995.65
2019-03-08T02:56:02.825Z,995.69
2019-03-08T02:57:02.722Z,995.68
2019-03-08T02:58:01.781Z,995.64
2019-03-08T02:59:01.728Z,995.69
2019-03-08T03:00:01.733Z,995.58
2019-03-08T03:01:01.664Z,995.63
2019-03-08T03:02:01.653Z,995.63
2019-03-08T03:03:02.319Z,995.57
2019-03-08T03:04:01.573Z,995.68
2019-03-08T03:05:01.574Z,995.75
2019-03-08T03:06:01.503Z,995.61
2019-03-08T03:07:01.473Z,995.72
2019-03-08T03:08:01.437Z,995.62
2019-03-08T03:09:01.417Z,995.61
2019-03-08T03:10:01.415Z,995.67
2019-03-08T03:12:01.313Z,995.63
2019-03-08T03:13:01.284Z,995.57
2019-03-08T03:14:01.837Z,995.60
2019-03-08T03:15:01.248Z,995.54
2019-03-08T03:16:01.182Z,995.58
2019-03-08T03:17:01.152Z,995.59
2019-03-08T03:18:01.118Z,995.66
2019-03-08T03:19:01.100Z,995.59
2019-03-08T03:20:01.081Z,995.54
2019-03-08T03:21:01.060Z,995.59
2019-03-08T03:22:00.990Z,995.58
2019-03-08T03:23:01.001Z,995.54
2019-03-08T03:24:01.823Z,995.60
2019-03-08T03:25:01.367Z,995.60
2019-03-08T03:26:00.871Z,995.58
2019-03-08T03:27:00.842Z,995.51
2019-03-08T03:28:01.322Z,995.44
2019-03-08T03:29:00.767Z,995.50
2019-03-08T03:30:00.790Z,995.51
2019-03-08T03:31:00.713Z,995.49
2019-03-08T03:32:00.678Z,995.46
2019-03-08T03:33:00.642Z,995.47
2019-03-08T03:34:00.605Z,995.55
2019-03-08T03:35:00.606Z,995.48
2019-03-08T03:36:00.696Z,995.44
2019-03-08T03:37:00.515Z,995.44
2019-03-08T03:38:01.330Z,995.53
2019-03-08T03:39:01.376Z,995.41
2019-03-08T03:40:00.452Z,995.47
2019-03-08T03:41:01.327Z,995.51
2019-03-08T03:42:00.353Z,995.48
2019-03-08T03:43:00.824Z,995.46
2019-03-08T03:44:00.294Z,995.38
2019-03-08T03:45:00.364Z,995.40
2019-03-08T03:46:00.225Z,995.38
2019-03-08T03:47:00.828Z,995.34
2019-03-08T03:48:00.832Z,995.40
2019-03-08T03:49:00.863Z,995.32
2019-03-08T03:50:00.475Z,995.27
2019-03-08T03:51:00.827Z,995.37
2019-03-08T03:52:00.034Z,995.31
2019-03-08T03:53:00.002Z,995.31
2019-03-08T03:53:59.970Z,995.41
2019-03-08T03:54:59.931Z,995.34
2019-03-08T03:56:00.368Z,995.36
2019-03-08T03:56:59.891Z,995.44
2019-03-08T03:57:59.836Z,995.41
2019-03-08T03:59:00.325Z,995.37
2019-03-08T03:59:59.776Z,995.37
2019-03-08T04:00:59.872Z,995.50
2019-03-08T04:01:59.713Z,995.36
2019-03-08T04:02:59.686Z,995.32
2019-03-08T04:03:59.646Z,995.36
2019-03-08T04:04:59.697Z,995.35
2019-03-08T04:05:59.607Z,995.26
2019-03-08T04:06:59.547Z,995.24
2019-03-08T04:07:59.519Z,995.13
2019-03-08T04:08:59.492Z,995.23
2019-03-08T04:10:00.330Z,995.30
2019-03-08T04:10:59.867Z,995.22
2019-03-08T04:12:00.336Z,995.31
2019-03-08T04:12:59.362Z,995.16
2019-03-08T04:13:59.862Z,995.25
2019-03-08T04:14:59.296Z,995.24
2019-03-08T04:15:59.359Z,995.19
2019-03-08T04:16:59.230Z,995.21
2019-03-08T04:17:59.228Z,995.19
2019-03-08T04:18:59.209Z,995.21
2019-03-08T04:19:59.137Z,995.28
2019-03-08T04:20:59.368Z,995.17
2019-03-08T04:21:59.835Z,995.15
2019-03-08T04:22:59.032Z,995.14
2019-03-08T04:23:59.828Z,995.20
2019-03-08T04:24:58.978Z,995.25
2019-03-08T04:25:59.373Z,995.10
2019-03-08T04:26:58.913Z,995.04
2019-03-08T04:27:58.886Z,995.15
2019-03-08T04:28:58.847Z,995.15
2019-03-08T04:29:59.334Z,995.02
2019-03-08T04:30:58.874Z,995.14
2019-03-08T04:31:58.752Z,995.05
2019-03-08T04:32:58.718Z,995.09
2019-03-08T04:33:59.341Z,994.96
2019-03-08T04:34:58.660Z,995.11
2019-03-08T04:35:58.868Z,995.09
2019-03-08T04:36:58.600Z,995.16
2019-03-08T04:37:58.564Z,995.18
2019-03-08T04:38:58.523Z,995.21
2019-03-08T04:39:59.338Z,995.27
2019-03-08T04:40:58.872Z,995.21
2019-03-08T04:41:58.431Z,995.24
2019-03-08T04:42:58.406Z,995.32
2019-03-08T04:43:58.378Z,995.33
2019-03-08T04:44:58.338Z,995.29
2019-03-08T04:45:58.374Z,995.26
2019-03-08T04:46:58.266Z,995.26
2019-03-08T04:47:58.836Z,995.22
2019-03-08T04:48:58.203Z,995.29
2019-03-08T04:49:58.272Z,995.18
2019-03-08T04:50:58.387Z,995.16
2019-03-08T04:51:58.110Z,995.23
2019-03-08T04:52:58.079Z,995.25
2019-03-08T04:53:58.837Z,995.17
2019-03-08T04:54:58.039Z,995.20
2019-03-08T04:55:58.012Z,995.13
2019-03-08T04:56:57.965Z,995.13
2019-03-08T04:57:57.962Z,995.20
2019-03-08T04:58:57.888Z,995.05
2019-03-08T04:59:58.837Z,995.11
2019-03-08T05:00:57.890Z,995.17
2019-03-08T05:01:57.799Z,995.11
2019-03-08T05:02:58.337Z,995.13
2019-03-08T05:03:58.392Z,995.09
2019-03-08T05:04:58.342Z,995.18
2019-03-08T05:05:57.888Z,995.13
2019-03-08T05:06:58.337Z,995.03
2019-03-08T05:07:58.340Z,995.13
2019-03-08T05:08:57.574Z,995.19
2019-03-08T05:09:57.541Z,995.16
2019-03-08T05:10:57.507Z,995.16
2019-03-08T05:11:57.525Z,995.17
2019-03-08T05:12:57.442Z,995.11
2019-03-08T05:13:57.454Z,995.26
2019-03-08T05:14:57.385Z,995.16
2019-03-08T05:15:59.241Z,995.11
2019-03-08T05:16:57.366Z,995.09
2019-03-08T05:17:58.505Z,995.07
2019-03-08T05:18:57.262Z,995.15
2019-03-08T05:19:57.843Z,995.17
2019-03-08T05:20:57.196Z,995.20
2019-03-08T05:21:57.186Z,995.22
2019-03-08T05:22:57.127Z,995.11
2019-03-08T05:23:57.102Z,995.27
2019-03-08T05:24:57.081Z,995.26
2019-03-08T05:25:57.037Z,995.27
2019-03-08T05:26:57.033Z,995.38
2019-03-08T05:27:57.972Z,995.21
2019-03-08T05:28:56.943Z,995.29
2019-03-08T05:29:56.908Z,995.36
2019-03-08T05:30:57.840Z,995.22
2019-03-08T05:31:56.872Z,995.26
2019-03-08T05:32:56.822Z,995.26
2019-03-08T05:33:56.854Z,995.19
2019-03-08T05:34:56.758Z,995.16
2019-03-08T05:35:56.754Z,995.27
2019-03-08T05:36:56.716Z,995.20
2019-03-08T05:37:56.669Z,995.11
2019-03-08T05:38:56.692Z,995.14
2019-03-08T05:39:56.594Z,995.19
2019-03-08T05:40:57.262Z,995.34
2019-03-08T05:41:56.720Z,995.34
2019-03-08T05:42:56.500Z,995.33
2019-03-08T05:43:56.469Z,995.31
2019-03-08T05:44:56.477Z,995.43
2019-03-08T05:45:56.413Z,995.30
2019-03-08T05:46:56.398Z,995.27
2019-03-08T05:47:56.353Z,995.13
2019-03-08T05:48:56.322Z,995.44
2019-03-08T05:49:56.283Z,995.32
2019-03-08T05:50:56.852Z,995.27
2019-03-08T05:51:56.247Z,995.52
2019-03-08T05:52:56.223Z,995.52
2019-03-08T05:53:56.163Z,995.44
2019-03-08T05:54:56.130Z,995.58
2019-03-08T05:55:56.098Z,995.54
2019-03-08T05:56:56.113Z,995.43
2019-03-08T05:57:56.035Z,995.60
2019-03-08T05:58:56.009Z,995.46
2019-03-08T05:59:56.854Z,995.41
2019-03-08T06:00:55.942Z,995.44
2019-03-08T06:01:55.951Z,995.55
2019-03-08T06:02:55.879Z,995.57
2019-03-08T06:03:55.968Z,995.69
2019-03-08T06:04:56.356Z,995.55
2019-03-08T06:05:56.346Z,995.61
2019-03-08T06:06:55.787Z,995.62
2019-03-08T06:07:55.723Z,995.62
2019-03-08T06:08:56.346Z,995.60
2019-03-08T06:09:55.673Z,995.72
2019-03-08T06:10:55.633Z,995.82
2019-03-08T06:11:55.693Z,995.73
2019-03-08T06:12:56.257Z,995.73
2019-03-08T06:13:55.537Z,995.67
2019-03-08T06:14:56.348Z,995.64
2019-03-08T06:15:56.350Z,995.83
2019-03-08T06:16:55.507Z,995.85
2019-03-08T06:17:56.452Z,995.78
2019-03-08T06:18:55.391Z,995.90
2019-03-08T06:19:55.351Z,995.82
2019-03-08T06:20:55.318Z,995.99
2019-03-08T06:21:55.296Z,995.93
2019-03-08T06:22:55.418Z,996.01
2019-03-08T06:23:55.228Z,996.01
2019-03-08T06:24:55.201Z,996.03
2019-03-08T06:25:55.173Z,996.06
2019-03-08T06:26:55.140Z,996.11
2019-03-08T06:27:55.147Z,996.01
2019-03-08T06:28:55.072Z,996.16
2019-03-08T06:29:55.066Z,996.08
2019-03-08T06:30:55.044Z,996.24
2019-03-08T06:31:54.976Z,996.13
2019-03-08T06:32:54.974Z,996.13
2019-03-08T06:33:54.929Z,996.27
2019-03-08T06:34:54.933Z,996.17
2019-03-08T06:35:54.851Z,996.08
2019-03-08T06:36:54.830Z,996.36
2019-03-08T06:37:54.817Z,996.36
2019-03-08T06:38:54.769Z,996.55
2019-03-08T06:39:54.753Z,996.33
2019-03-08T06:40:54.738Z,996.48
2019-03-08T06:41:54.691Z,996.50
2019-03-08T06:42:54.662Z,996.53
2019-03-08T06:43:54.615Z,996.45
2019-03-08T06:45:01.639Z,996.68
2019-03-08T06:45:54.544Z,996.62
2019-03-08T06:46:54.508Z,996.73
2019-03-08T06:47:54.507Z,996.66
2019-03-08T06:48:54.453Z,996.51
2019-03-08T06:49:54.419Z,996.58
2019-03-08T06:50:55.379Z,996.65
2019-03-08T06:51:54.365Z,996.56
2019-03-08T06:52:54.344Z,996.66
2019-03-08T06:53:54.292Z,996.67
2019-03-08T06:54:54.819Z,996.75
2019-03-08T06:55:54.242Z,996.69
2019-03-08T06:56:54.231Z,996.65
2019-03-08T06:57:54.204Z,996.84
2019-03-08T06:58:54.141Z,996.79
2019-03-08T06:59:54.109Z,996.80
2019-03-08T07:00:54.093Z,996.50
2019-03-08T07:01:54.049Z,996.79
2019-03-08T07:02:54.405Z,996.74
2019-03-08T07:03:53.991Z,996.85
2019-03-08T07:04:53.973Z,996.83
2019-03-08T07:05:53.932Z,996.99
2019-03-08T07:06:54.869Z,996.85
2019-03-08T07:07:53.907Z,996.89
2019-03-08T07:08:53.897Z,997.07
2019-03-08T07:09:54.368Z,997.03
2019-03-08T07:10:53.787Z,997.09
2019-03-08T07:11:53.831Z,997.18
2019-03-08T07:13:02.523Z,997.11
2019-03-08T07:13:53.748Z,997.18
2019-03-08T07:14:53.741Z,997.16
2019-03-08T07:15:53.636Z,997.01
2019-03-08T07:16:53.628Z,997.13
2019-03-08T07:17:53.586Z,997.20
2019-03-08T07:18:53.531Z,997.28
2019-03-08T07:19:53.502Z,997.41
2019-03-08T07:20:53.485Z,997.44
2019-03-08T07:21:53.452Z,997.48
2019-03-08T07:22:53.428Z,997.40
2019-03-08T07:23:53.911Z,997.38
2019-03-08T07:24:53.344Z,997.43
2019-03-08T07:25:54.468Z,997.40
2019-03-08T07:26:53.294Z,997.54
2019-03-08T07:27:53.415Z,997.54
2019-03-08T07:28:53.222Z,997.52
2019-03-08T07:29:53.196Z,997.48
2019-03-08T07:30:57.961Z,997.57
2019-03-08T07:31:53.127Z,997.52
2019-03-08T07:32:53.099Z,997.60
2019-03-08T07:33:53.611Z,997.70
2019-03-08T07:34:53.044Z,997.71
2019-03-08T07:35:53.140Z,997.73
2019-03-08T07:36:52.976Z,997.58
2019-03-08T07:37:53.009Z,997.77
2019-03-08T07:38:52.994Z,997.83
2019-03-08T07:39:53.910Z,997.81
2019-03-08T07:40:52.854Z,997.76
2019-03-08T07:41:52.832Z,997.90
2019-03-08T07:42:52.796Z,997.83
2019-03-08T07:43:52.794Z,997.77
2019-03-08T07:44:52.754Z,998.08
2019-03-08T07:45:53.286Z,998.04
2019-03-08T07:46:56.283Z,997.92
2019-03-08T07:47:52.646Z,997.98
2019-03-08T07:48:52.637Z,997.86
2019-03-08T07:49:52.580Z,997.90
2019-03-08T07:50:52.565Z,997.98
2019-03-08T07:51:52.528Z,998.15
2019-03-08T07:52:52.498Z,998.02
2019-03-08T07:53:52.487Z,998.07
2019-03-08T07:54:53.176Z,998.10
2019-03-08T07:55:52.400Z,998.10
2019-03-08T07:56:56.284Z,998.13
2019-03-08T07:57:52.421Z,998.09
2019-03-08T07:58:52.332Z,998.24
2019-03-08T07:59:53.913Z,998.28
2019-03-08T08:00:53.088Z,998.27
2019-03-08T08:01:52.225Z,998.21
2019-03-08T08:02:52.197Z,998.33
2019-03-08T08:03:52.796Z,998.26
2019-03-08T08:04:52.131Z,998.54
2019-03-08T08:05:57.978Z,998.32
2019-03-08T08:06:52.890Z,998.44
2019-03-08T08:07:52.789Z,998.53
2019-03-08T08:08:52.106Z,998.58
2019-03-08T08:09:52.007Z,998.46
2019-03-08T08:10:51.956Z,998.59
2019-03-08T08:11:51.922Z,998.52
2019-03-08T08:12:52.786Z,998.63
2019-03-08T08:13:51.863Z,998.41
2019-03-08T08:14:51.863Z,998.75
2019-03-08T08:15:51.798Z,998.74
2019-03-08T08:16:51.777Z,998.78
2019-03-08T08:17:52.382Z,998.80
2019-03-08T08:18:51.711Z,998.83
2019-03-08T08:19:51.705Z,998.87
2019-03-08T08:20:52.295Z,998.88
2019-03-08T08:21:51.646Z,998.82
2019-03-08T08:22:51.610Z,998.92
2019-03-08T08:23:51.555Z,999.01
2019-03-08T08:24:51.522Z,998.91
2019-03-08T08:25:51.519Z,998.92
2019-03-08T08:26:51.465Z,999.02
2019-03-08T08:27:51.430Z,998.96
2019-03-08T08:28:51.409Z,999.14
2019-03-08T08:29:51.383Z,999.12
2019-03-08T08:30:51.363Z,999.08
2019-03-08T08:31:51.306Z,999.11
2019-03-08T08:32:51.283Z,999.15
2019-03-08T08:33:51.921Z,999.08
2019-03-08T08:34:51.264Z,999.21
2019-03-08T08:35:51.225Z,999.28
2019-03-08T08:36:51.188Z,999.23
2019-03-08T08:37:51.888Z,999.25
2019-03-08T08:38:51.889Z,999.08
2019-03-08T08:39:51.882Z,999.29
2019-03-08T08:40:51.071Z,999.30
2019-03-08T08:41:51.883Z,999.32
2019-03-08T08:42:51.888Z,999.37
2019-03-08T08:43:51.906Z,999.53
2019-03-08T08:44:53.117Z,999.42
2019-03-08T08:45:50.923Z,999.49
2019-03-08T08:46:51.386Z,999.54
2019-03-08T08:47:52.791Z,999.52
2019-03-08T08:48:50.795Z,999.62
2019-03-08T08:49:54.686Z,999.63
2019-03-08T08:50:50.755Z,999.55
2019-03-08T08:51:50.699Z,999.48
2019-03-08T08:52:50.667Z,999.54
2019-03-08T08:53:51.389Z,999.77
2019-03-08T08:54:50.615Z,999.79
2019-03-08T08:55:50.610Z,999.75
2019-03-08T08:56:50.546Z,999.85
2019-03-08T08:57:50.543Z,999.84
2019-03-08T08:58:50.497Z,999.84
2019-03-08T08:59:50.446Z,999.88
2019-03-08T09:00:50.429Z,999.88
2019-03-08T09:01:50.409Z,999.84
2019-03-08T09:02:56.794Z,999.81
2019-03-08T09:03:50.327Z,999.83
2019-03-08T09:04:50.291Z,999.86
2019-03-08T09:05:50.275Z,999.95
2019-03-08T09:06:50.430Z,999.96
2019-03-08T09:07:50.223Z,999.87
2019-03-08T09:08:50.203Z,1000.11
2019-03-08T09:09:50.177Z,1000.07
2019-03-08T09:10:50.122Z,1000.14
2019-03-08T09:11:52.627Z,1000.20
2019-03-08T09:12:50.054Z,1000.25
2019-03-08T09:13:50.033Z,1000.19
2019-03-08T09:14:50.940Z,1000.19
2019-03-08T09:15:49.969Z,1000.20
2019-03-08T09:16:49.959Z,1000.36
2019-03-08T09:17:50.916Z,1000.43
2019-03-08T09:18:49.876Z,1000.32
2019-03-08T09:19:49.840Z,1000.32
2019-03-08T09:20:50.399Z,1000.34
2019-03-08T09:21:49.806Z,1000.27
2019-03-08T09:22:49.751Z,1000.40
2019-03-08T09:23:49.721Z,1000.38
2019-03-08T09:24:49.758Z,1000.41
2019-03-08T09:25:50.352Z,1000.46
2019-03-08T09:26:49.648Z,1000.42
2019-03-08T09:27:50.351Z,1000.46
2019-03-08T09:28:49.574Z,1000.65
2019-03-08T09:29:49.541Z,1000.51
2019-03-08T09:30:49.506Z,1000.54
2019-03-08T09:31:49.931Z,1000.57
2019-03-08T09:32:58.728Z,1000.67
2019-03-08T09:33:49.427Z,1000.68
2019-03-08T09:34:52.301Z,1000.71
2019-03-08T09:35:49.356Z,1000.78
2019-03-08T09:36:49.385Z,1000.69
2019-03-08T09:37:49.307Z,1000.77
2019-03-08T09:38:49.950Z,1000.71
2019-03-08T09:39:49.858Z,1000.82
2019-03-08T09:40:51.803Z,1000.79
2019-03-08T09:41:49.999Z,1000.89
2019-03-08T09:42:49.169Z,1000.83
2019-03-08T09:43:49.961Z,1000.86
2019-03-08T09:44:49.087Z,1000.85
2019-03-08T09:45:49.063Z,1001.01
2019-03-08T09:46:49.382Z,1001.00
2019-03-08T09:47:49.017Z,1001.17
2019-03-08T09:48:49.899Z,1001.03
2019-03-08T09:49:48.934Z,1001.16
2019-03-08T09:50:48.962Z,1001.10
2019-03-08T09:51:48.883Z,1001.27
2019-03-08T09:52:48.870Z,1001.07
2019-03-08T09:53:48.819Z,1001.18
2019-03-08T09:54:48.785Z,1001.46
2019-03-08T09:55:48.750Z,1001.39
2019-03-08T09:56:48.719Z,1001.36
2019-03-08T09:57:48.724Z,1001.43
2019-03-08T09:58:48.664Z,1001.49
2019-03-08T09:59:48.632Z,1001.50
2019-03-08T10:00:48.608Z,1001.57
2019-03-08T10:01:48.572Z,1001.60
2019-03-08T10:02:48.563Z,1001.60
2019-03-08T10:03:48.513Z,1001.62
2019-03-08T10:04:49.398Z,1001.71
2019-03-08T10:05:48.457Z,1001.73
2019-03-08T10:06:48.422Z,1001.75
2019-03-08T10:07:48.419Z,1001.85
2019-03-08T10:08:48.378Z,1001.92
2019-03-08T10:09:48.425Z,1001.89
2019-03-08T10:10:48.299Z,1001.90
2019-03-08T10:11:48.268Z,1002.02
2019-03-08T10:12:48.266Z,1002.01
2019-03-08T10:13:48.208Z,1002.06
2019-03-08T10:14:49.845Z,1002.10
2019-03-08T10:15:48.904Z,1001.96
2019-03-08T10:16:48.169Z,1002.05
2019-03-08T10:17:48.129Z,1002.04
2019-03-08T10:18:48.056Z,1001.98
2019-03-08T10:19:48.908Z,1002.05
2019-03-08T10:20:47.993Z,1002.16
2019-03-08T10:21:47.969Z,1002.10
2019-03-08T10:22:47.957Z,1002.11
2019-03-08T10:23:47.905Z,1002.24
2019-03-08T10:24:47.893Z,1002.28
2019-03-08T10:25:47.839Z,1002.32
2019-03-08T10:26:47.818Z,1002.18
2019-03-08T10:27:47.779Z,1002.31
2019-03-08T10:28:47.780Z,1002.25
2019-03-08T10:29:47.716Z,1002.29
2019-03-08T10:30:48.409Z,1002.30
2019-03-08T10:31:47.654Z,1002.26
2019-03-08T10:32:47.632Z,1002.23
2019-03-08T10:33:47.644Z,1002.28
2019-03-08T10:34:47.571Z,1002.29
2019-03-08T10:35:47.537Z,1002.29
2019-03-08T10:36:47.509Z,1002.36
2019-03-08T10:37:47.499Z,1002.33
2019-03-08T10:38:47.475Z,1002.41
2019-03-08T10:39:47.419Z,1002.47
2019-03-08T10:40:47.388Z,1002.44
2019-03-08T10:41:47.360Z,1002.45
2019-03-08T10:42:47.326Z,1002.49
2019-03-08T10:43:47.446Z,1002.64
2019-03-08T10:44:47.275Z,1002.62
2019-03-08T10:45:47.243Z,1002.74
2019-03-08T10:46:47.213Z,1002.66
2019-03-08T10:47:55.622Z,1002.68
2019-03-08T10:48:47.173Z,1002.69
2019-03-08T10:49:55.143Z,1002.72
2019-03-08T10:50:47.094Z,1002.80
2019-03-08T10:51:47.136Z,1002.79
2019-03-08T10:52:47.035Z,1002.83
2019-03-08T10:53:47.048Z,1002.82
2019-03-08T10:54:46.972Z,1002.82
2019-03-08T10:55:46.944Z,1002.85
2019-03-08T10:56:46.910Z,1002.88
2019-03-08T10:57:46.893Z,1002.90
2019-03-08T10:58:46.884Z,1002.83
2019-03-08T10:59:46.828Z,1002.98
2019-03-08T11:00:46.794Z,1002.93
2019-03-08T11:01:46.895Z,1003.03
2019-03-08T11:02:48.166Z,1003.10
2019-03-08T11:03:46.732Z,1003.01
2019-03-08T11:04:46.680Z,1003.05
2019-03-08T11:05:46.660Z,1003.08
2019-03-08T11:06:46.622Z,1003.04
2019-03-08T11:07:46.610Z,1003.11
2019-03-08T11:08:46.553Z,1003.17
2019-03-08T11:09:46.554Z,1003.12
2019-03-08T11:10:48.405Z,1003.22
2019-03-08T11:11:46.491Z,1003.15
2019-03-08T11:12:46.441Z,1003.22
2019-03-08T11:13:46.427Z,1003.13
2019-03-08T11:14:46.453Z,1003.20
2019-03-08T11:15:46.928Z,1003.24
2019-03-08T11:16:46.341Z,1003.27
2019-03-08T11:17:50.717Z,1003.40
2019-03-08T11:18:46.257Z,1003.32
2019-03-08T11:19:46.251Z,1003.22
2019-03-08T11:20:46.521Z,1003.37
2019-03-08T11:21:46.172Z,1003.35
2019-03-08T11:22:46.916Z,1003.60
2019-03-08T11:23:46.109Z,1003.57
2019-03-08T11:24:46.113Z,1003.42
2019-03-08T11:25:46.049Z,1003.47
2019-03-08T11:26:46.020Z,1003.49
2019-03-08T11:27:45.982Z,1003.46
2019-03-08T11:28:45.963Z,1003.59
2019-03-08T11:29:45.948Z,1003.61
2019-03-08T11:30:53.813Z,1003.72
2019-03-08T11:31:45.870Z,1003.74
2019-03-08T11:32:46.427Z,1003.82
2019-03-08T11:33:45.821Z,1003.82
2019-03-08T11:34:51.926Z,1003.91
2019-03-08T11:35:45.762Z,1003.73
2019-03-08T11:36:45.722Z,1004.00
2019-03-08T11:37:45.722Z,1004.01
2019-03-08T11:38:45.664Z,1003.94
2019-03-08T11:39:45.629Z,1003.96
2019-03-08T11:40:45.657Z,1003.97
2019-03-08T11:41:46.342Z,1003.95
2019-03-08T11:42:50.321Z,1004.00
2019-03-08T11:43:45.651Z,1004.17
2019-03-08T11:44:46.331Z,1004.08
2019-03-08T11:45:45.603Z,1004.00
2019-03-08T11:46:45.435Z,1004.00
2019-03-08T11:47:45.481Z,1003.92
2019-03-08T11:48:46.322Z,1004.00
2019-03-08T11:49:45.345Z,1004.15
2019-03-08T11:50:45.346Z,1004.10
2019-03-08T11:51:45.264Z,1004.06
2019-03-08T11:52:45.269Z,1004.04
2019-03-08T11:53:45.212Z,1004.40
2019-03-08T11:54:45.175Z,1004.10
2019-03-08T11:55:45.173Z,1004.15
2019-03-08T11:56:45.114Z,1004.25
2019-03-08T11:57:45.095Z,1004.35
2019-03-08T11:58:45.052Z,1004.24
2019-03-08T11:59:45.022Z,1004.23
2019-03-08T12:00:45.012Z,1004.21
2019-03-08T12:01:44.966Z,1004.11
2019-03-08T12:02:44.933Z,1004.35
2019-03-08T12:03:44.902Z,1004.34
2019-03-08T12:04:44.904Z,1004.43
2019-03-08T12:05:44.868Z,1004.46
2019-03-08T12:06:44.834Z,1004.34
2019-03-08T12:07:44.782Z,1004.26
2019-03-08T12:08:44.752Z,1004.34
2019-03-08T12:09:44.728Z,1004.42
2019-03-08T12:10:44.718Z,1004.28
2019-03-08T12:11:44.663Z,1004.29
2019-03-08T12:12:46.495Z,1004.35
2019-03-08T12:13:44.603Z,1004.41
2019-03-08T12:14:44.569Z,1004.40
2019-03-08T12:15:44.547Z,1004.54
2019-03-08T12:16:44.556Z,1004.43
2019-03-08T12:17:44.480Z,1004.50
2019-03-08T12:18:44.447Z,1004.32
2019-03-08T12:19:44.927Z,1004.48
2019-03-08T12:20:44.388Z,1004.53
2019-03-08T12:21:44.385Z,1004.55
2019-03-08T12:22:44.327Z,1004.62